OMD207 KDFW-KMZJ
Flight info
| Callsign | OMD207 |
|---|---|
| Flight time | N/A |
| Altitude | 38000 |
| Route | WSTEX2 CIKAN EWM TUS |
| Aircraft | A21N/M-SDE2E3FGHIRWXY/LB1 |
Departure
| Time | 2026-05-08 00:16 |
|---|---|
| Airport | Dallas Fort Worth International Airport (KDFW) |
Arrival
| Time | N/A |
|---|---|
| Airport | Pinal Airpark (KMZJ) |
| Time | Latitude | Longitude | Altitude | Speed | Heading |
|---|---|---|---|---|---|
| 2026-05-07 23:42 | 32.88399 | -97.03538 | 580 ft | 0 kts | 295° |
| 2026-05-07 23:54 | 32.88397 | -97.03534 | 580 ft | 3 kts | 295° |
| 2026-05-07 23:54 | 32.88388 | -97.03510 | 582 ft | 2 kts | 295° |
| 2026-05-07 23:55 | 32.88378 | -97.03489 | 582 ft | 4 kts | 347° |
| 2026-05-07 23:55 | 32.88356 | -97.03488 | 581 ft | 3 kts | 0° |
| 2026-05-07 23:55 | 32.88352 | -97.03488 | 581 ft | 1 kts | 0° |
| 2026-05-07 23:58 | 32.88368 | -97.03488 | 581 ft | 4 kts | 3° |
| 2026-05-07 23:58 | 32.88430 | -97.03487 | 581 ft | 14 kts | 0° |
| 2026-05-07 23:58 | 32.88495 | -97.03504 | 585 ft | 7 kts | 300° |
| 2026-05-07 23:59 | 32.88499 | -97.03593 | 587 ft | 14 kts | 271° |
| 2026-05-07 23:59 | 32.88500 | -97.03741 | 594 ft | 23 kts | 270° |
| 2026-05-07 23:59 | 32.88503 | -97.03962 | 604 ft | 30 kts | 270° |
| 2026-05-07 23:59 | 32.88502 | -97.04193 | 616 ft | 21 kts | 269° |
| 2026-05-08 00:00 | 32.88501 | -97.04340 | 603 ft | 19 kts | 270° |
| 2026-05-08 00:00 | 32.88503 | -97.04503 | 595 ft | 21 kts | 270° |
| 2026-05-08 00:00 | 32.88504 | -97.04679 | 593 ft | 22 kts | 270° |
| 2026-05-08 00:00 | 32.88517 | -97.04858 | 594 ft | 24 kts | 314° |
| 2026-05-08 00:01 | 32.88639 | -97.04892 | 594 ft | 19 kts | 1° |
| 2026-05-08 00:01 | 32.88777 | -97.04890 | 593 ft | 22 kts | 360° |
| 2026-05-08 00:01 | 32.88950 | -97.04891 | 595 ft | 18 kts | 0° |
| 2026-05-08 00:01 | 32.89085 | -97.04891 | 596 ft | 21 kts | 0° |
| 2026-05-08 00:02 | 32.89231 | -97.04890 | 598 ft | 19 kts | 0° |
| 2026-05-08 00:02 | 32.89366 | -97.04888 | 602 ft | 21 kts | 0° |
| 2026-05-08 00:02 | 32.89528 | -97.04887 | 612 ft | 25 kts | 360° |
| 2026-05-08 00:02 | 32.89707 | -97.04887 | 610 ft | 27 kts | 1° |
| 2026-05-08 00:03 | 32.89909 | -97.04886 | 614 ft | 30 kts | 0° |
| 2026-05-08 00:03 | 32.90119 | -97.04885 | 613 ft | 32 kts | 0° |
| 2026-05-08 00:03 | 32.90343 | -97.04883 | 613 ft | 34 kts | 0° |
| 2026-05-08 00:03 | 32.90535 | -97.04883 | 613 ft | 15 kts | 0° |
| 2026-05-08 00:04 | 32.90654 | -97.04882 | 616 ft | 20 kts | 0° |
| 2026-05-08 00:04 | 32.90812 | -97.04881 | 618 ft | 27 kts | 0° |
| 2026-05-08 00:04 | 32.90998 | -97.04879 | 621 ft | 22 kts | 360° |
| 2026-05-08 00:04 | 32.91160 | -97.04879 | 620 ft | 23 kts | 0° |
| 2026-05-08 00:05 | 32.91313 | -97.04879 | 622 ft | 20 kts | 0° |
| 2026-05-08 00:05 | 32.91446 | -97.04878 | 620 ft | 19 kts | 0° |
| 2026-05-08 00:05 | 32.91513 | -97.04878 | 617 ft | 8 kts | 352° |
| 2026-05-08 00:05 | 32.91557 | -97.04909 | 619 ft | 6 kts | 307° |
| 2026-05-08 00:06 | 32.91562 | -97.04945 | 617 ft | 3 kts | 273° |
| 2026-05-08 00:06 | 32.91562 | -97.04946 | 617 ft | 0 kts | 270° |
| 2026-05-08 00:07 | 32.91563 | -97.04972 | 617 ft | 10 kts | 271° |
| 2026-05-08 00:07 | 32.91530 | -97.05064 | 623 ft | 17 kts | 195° |
| 2026-05-08 00:08 | 32.91510 | -97.05069 | 618 ft | 0 kts | 190° |
| 2026-05-08 00:08 | 32.91504 | -97.05071 | 627 ft | 4 kts | 190° |
| 2026-05-08 00:08 | 32.91356 | -97.05065 | 631 ft | 58 kts | 173° |
| 2026-05-08 00:08 | 32.91151 | -97.05057 | 626 ft | 18 kts | 187° |
| 2026-05-08 00:09 | 32.91038 | -97.05034 | 621 ft | 7 kts | 141° |
| 2026-05-08 00:09 | 32.91015 | -97.04970 | 617 ft | 10 kts | 96° |
| 2026-05-08 00:09 | 32.91013 | -97.04953 | 616 ft | 1 kts | 97° |
| 2026-05-08 00:09 | 32.91012 | -97.04939 | 629 ft | 4 kts | 94° |
| 2026-05-08 00:10 | 32.91024 | -97.04893 | 615 ft | 11 kts | 28° |
| 2026-05-08 00:10 | 32.91137 | -97.04881 | 621 ft | 21 kts | 2° |
| 2026-05-08 00:10 | 32.91293 | -97.04878 | 620 ft | 22 kts | 359° |
| 2026-05-08 00:10 | 32.91401 | -97.04879 | 623 ft | 14 kts | 0° |
| 2026-05-08 00:11 | 32.91519 | -97.04879 | 621 ft | 18 kts | 343° |
| 2026-05-08 00:11 | 32.91560 | -97.04934 | 629 ft | 0 kts | 282° |
| 2026-05-08 00:14 | 32.91550 | -97.05044 | 620 ft | 17 kts | 210° |
| 2026-05-08 00:15 | 32.91454 | -97.05075 | 625 ft | 0 kts | 183° |
| 2026-05-08 00:15 | 32.91312 | -97.05078 | 621 ft | 65 kts | 180° |
| 2026-05-08 00:15 | 32.90536 | -97.05088 | 639 ft | 145 kts | 176° |
| 2026-05-08 00:15 | 32.89814 | -97.05068 | 928 ft | 166 kts | 178° |
| 2026-05-08 00:16 | 32.88556 | -97.05055 | 1504 ft | 196 kts | 179° |
| 2026-05-08 00:16 | 32.86832 | -97.05041 | 2278 ft | 226 kts | 180° |
| 2026-05-08 00:16 | 32.85185 | -97.05092 | 3096 ft | 244 kts | 181° |
| 2026-05-08 00:16 | 32.83830 | -97.05133 | 3997 ft | 250 kts | 180° |
| 2026-05-08 00:17 | 32.83127 | -97.05153 | 4500 ft | 253 kts | 180° |
| 2026-05-08 00:17 | 32.81344 | -97.05197 | 5750 ft | 258 kts | 182° |
| 2026-05-08 00:17 | 32.80151 | -97.05225 | 6638 ft | 260 kts | 184° |
| 2026-05-08 00:17 | 32.78334 | -97.05269 | 7951 ft | 263 kts | 185° |
| 2026-05-08 00:18 | 32.76487 | -97.05312 | 9214 ft | 267 kts | 186° |
| 2026-05-08 00:18 | 32.73993 | -97.05405 | 10781 ft | 272 kts | 191° |
| 2026-05-08 00:18 | 32.72189 | -97.06008 | 11859 ft | 269 kts | 212° |
| 2026-05-08 00:18 | 32.70732 | -97.07394 | 12787 ft | 276 kts | 234° |
| 2026-05-08 00:19 | 32.69824 | -97.09484 | 13224 ft | 299 kts | 255° |
| 2026-05-08 00:19 | 32.69485 | -97.11119 | 13571 ft | 316 kts | 258° |
| 2026-05-08 00:19 | 32.69072 | -97.13745 | 14275 ft | 331 kts | 264° |
| 2026-05-08 00:19 | 32.68976 | -97.16288 | 15125 ft | 337 kts | 268° |
| 2026-05-08 00:20 | 32.68933 | -97.20139 | 16560 ft | 342 kts | 268° |
| 2026-05-08 00:20 | 32.68894 | -97.22918 | 17580 ft | 346 kts | 267° |
| 2026-05-08 00:20 | 32.68861 | -97.24853 | 18278 ft | 349 kts | 267° |
| 2026-05-08 00:20 | 32.68807 | -97.27715 | 19181 ft | 352 kts | 267° |
| 2026-05-08 00:21 | 32.68748 | -97.30612 | 20083 ft | 355 kts | 267° |
| 2026-05-08 00:21 | 32.68686 | -97.33546 | 20970 ft | 357 kts | 267° |
| 2026-05-08 00:21 | 32.68623 | -97.36525 | 21888 ft | 360 kts | 268° |
| 2026-05-08 00:21 | 32.68557 | -97.39507 | 22781 ft | 362 kts | 268° |
| 2026-05-08 00:22 | 32.68472 | -97.43489 | 23875 ft | 366 kts | 268° |
| 2026-05-08 00:22 | 32.68429 | -97.45528 | 24367 ft | 367 kts | 268° |
| 2026-05-08 00:22 | 32.68362 | -97.48560 | 25099 ft | 369 kts | 267° |
| 2026-05-08 00:22 | 32.68293 | -97.51586 | 25773 ft | 370 kts | 266° |
| 2026-05-08 00:23 | 32.68224 | -97.54593 | 26469 ft | 372 kts | 266° |
| 2026-05-08 00:23 | 32.68155 | -97.57687 | 27165 ft | 374 kts | 266° |
| 2026-05-08 00:23 | 32.68087 | -97.60768 | 27868 ft | 375 kts | 265° |
| 2026-05-08 00:23 | 32.68016 | -97.63879 | 28559 ft | 377 kts | 265° |
| 2026-05-08 00:24 | 32.67942 | -97.66997 | 29231 ft | 378 kts | 265° |
| 2026-05-08 00:24 | 32.67868 | -97.70095 | 30060 ft | 375 kts | 264° |
| 2026-05-08 00:24 | 32.67782 | -97.73171 | 30797 ft | 370 kts | 263° |
| 2026-05-08 00:24 | 32.67576 | -97.76202 | 31429 ft | 368 kts | 261° |
| 2026-05-08 00:25 | 32.67343 | -97.79221 | 32001 ft | 367 kts | 261° |
| 2026-05-08 00:25 | 32.67113 | -97.82200 | 32555 ft | 367 kts | 260° |
| 2026-05-08 00:25 | 32.66879 | -97.85217 | 33113 ft | 367 kts | 260° |
| 2026-05-08 00:25 | 32.66645 | -97.88227 | 33677 ft | 366 kts | 260° |
| 2026-05-08 00:26 | 32.66414 | -97.91233 | 34223 ft | 365 kts | 260° |
| 2026-05-08 00:26 | 32.66182 | -97.94214 | 34798 ft | 361 kts | 260° |
| 2026-05-08 00:26 | 32.65950 | -97.97167 | 35411 ft | 357 kts | 260° |
| 2026-05-08 00:26 | 32.65720 | -98.00074 | 36010 ft | 353 kts | 260° |
| 2026-05-08 00:27 | 32.65490 | -98.02959 | 36588 ft | 349 kts | 260° |
| 2026-05-08 00:27 | 32.65264 | -98.05803 | 37143 ft | 345 kts | 260° |
| 2026-05-08 00:27 | 32.65043 | -98.08589 | 37663 ft | 342 kts | 261° |
| 2026-05-08 00:27 | 32.64821 | -98.11386 | 37974 ft | 340 kts | 261° |
| 2026-05-08 00:28 | 32.64370 | -98.16999 | 38059 ft | 342 kts | 261° |
| 2026-05-08 00:28 | 32.63918 | -98.22622 | 38040 ft | 342 kts | 261° |
| 2026-05-08 00:29 | 32.63461 | -98.28240 | 38045 ft | 342 kts | 261° |
| 2026-05-08 00:29 | 32.63007 | -98.33830 | 38040 ft | 342 kts | 261° |
| 2026-05-08 00:30 | 32.62550 | -98.39461 | 38025 ft | 344 kts | 260° |
| 2026-05-08 00:30 | 32.62086 | -98.45112 | 38025 ft | 344 kts | 260° |
| 2026-05-08 00:31 | 32.61619 | -98.50764 | 38031 ft | 344 kts | 260° |
| 2026-05-08 00:31 | 32.61152 | -98.56383 | 38039 ft | 344 kts | 260° |
| 2026-05-08 00:32 | 32.60680 | -98.62033 | 38041 ft | 344 kts | 260° |
| 2026-05-08 00:32 | 32.60204 | -98.67681 | 38033 ft | 344 kts | 260° |
| 2026-05-08 00:33 | 32.59732 | -98.73324 | 38031 ft | 344 kts | 259° |
| 2026-05-08 00:33 | 32.59254 | -98.78944 | 38036 ft | 345 kts | 259° |
| 2026-05-08 00:34 | 32.58771 | -98.84614 | 38038 ft | 345 kts | 259° |
| 2026-05-08 00:34 | 32.58285 | -98.90270 | 38039 ft | 345 kts | 259° |
| 2026-05-08 00:35 | 32.57799 | -98.95927 | 38037 ft | 345 kts | 259° |
| 2026-05-08 00:35 | 32.57310 | -99.01546 | 38034 ft | 345 kts | 259° |
| 2026-05-08 00:36 | 32.56818 | -99.07182 | 38022 ft | 345 kts | 259° |
| 2026-05-08 00:36 | 32.56323 | -99.12836 | 38020 ft | 346 kts | 259° |
| 2026-05-08 00:37 | 32.55887 | -99.17770 | 38024 ft | 346 kts | 259° |
| 2026-05-08 00:38 | 32.55133 | -99.26244 | 38019 ft | 346 kts | 259° |
| 2026-05-08 00:38 | 32.54629 | -99.31915 | 38020 ft | 346 kts | 259° |
| 2026-05-08 00:39 | 32.54252 | -99.37602 | 38031 ft | 347 kts | 260° |
| 2026-05-08 00:39 | 32.53909 | -99.43305 | 38038 ft | 347 kts | 260° |
| 2026-05-08 00:40 | 32.53568 | -99.48968 | 38040 ft | 348 kts | 260° |
| 2026-05-08 00:40 | 32.53223 | -99.54694 | 38047 ft | 349 kts | 260° |
| 2026-05-08 00:41 | 32.52875 | -99.60432 | 38054 ft | 349 kts | 260° |
| 2026-05-08 00:41 | 32.52523 | -99.66173 | 38055 ft | 349 kts | 260° |
| 2026-05-08 00:42 | 32.52169 | -99.71908 | 38054 ft | 349 kts | 260° |
| 2026-05-08 00:42 | 32.51814 | -99.77605 | 38029 ft | 349 kts | 260° |
| 2026-05-08 00:43 | 32.51455 | -99.83335 | 38034 ft | 349 kts | 260° |
| 2026-05-08 00:43 | 32.51093 | -99.89081 | 38031 ft | 350 kts | 260° |
| 2026-05-08 00:44 | 32.50727 | -99.94838 | 38014 ft | 350 kts | 260° |
| 2026-05-08 00:44 | 32.50360 | -100.00548 | 38023 ft | 350 kts | 260° |
| 2026-05-08 00:45 | 32.49989 | -100.06305 | 38016 ft | 350 kts | 259° |
| 2026-05-08 00:45 | 32.49627 | -100.11915 | 38013 ft | 350 kts | 259° |
| 2026-05-08 00:46 | 32.49246 | -100.17671 | 37991 ft | 350 kts | 259° |
| 2026-05-08 00:46 | 32.48868 | -100.23382 | 37998 ft | 351 kts | 259° |
| 2026-05-08 00:47 | 32.48481 | -100.29165 | 37972 ft | 352 kts | 259° |
| 2026-05-08 00:47 | 32.48105 | -100.34950 | 38055 ft | 352 kts | 259° |
| 2026-05-08 00:48 | 32.47729 | -100.40731 | 38066 ft | 352 kts | 259° |
| 2026-05-08 00:48 | 32.47351 | -100.46469 | 38073 ft | 352 kts | 259° |
| 2026-05-08 00:49 | 32.46967 | -100.52247 | 38067 ft | 352 kts | 259° |
| 2026-05-08 00:49 | 32.46576 | -100.58018 | 38077 ft | 352 kts | 259° |
| 2026-05-08 00:50 | 32.46184 | -100.63798 | 38053 ft | 353 kts | 259° |
| 2026-05-08 00:50 | 32.45815 | -100.69235 | 38033 ft | 353 kts | 259° |
| 2026-05-08 00:51 | 32.45423 | -100.74999 | 38013 ft | 353 kts | 259° |
| 2026-05-08 00:51 | 32.45025 | -100.80786 | 37985 ft | 353 kts | 259° |
| 2026-05-08 00:52 | 32.44623 | -100.86575 | 37995 ft | 353 kts | 259° |
| 2026-05-08 00:52 | 32.44218 | -100.92362 | 37995 ft | 353 kts | 259° |
| 2026-05-08 00:53 | 32.43812 | -100.98116 | 37995 ft | 353 kts | 259° |
| 2026-05-08 00:53 | 32.43402 | -101.03905 | 37988 ft | 353 kts | 259° |
| 2026-05-08 00:54 | 32.42990 | -101.09692 | 37978 ft | 353 kts | 259° |
| 2026-05-08 00:54 | 32.42572 | -101.15474 | 37972 ft | 353 kts | 259° |
| 2026-05-08 00:55 | 32.42154 | -101.21223 | 37968 ft | 353 kts | 259° |
| 2026-05-08 00:55 | 32.41737 | -101.27012 | 37962 ft | 353 kts | 259° |
| 2026-05-08 00:56 | 32.41315 | -101.32805 | 37966 ft | 354 kts | 259° |
| 2026-05-08 00:56 | 32.40887 | -101.38605 | 37960 ft | 354 kts | 259° |
| 2026-05-08 00:57 | 32.40460 | -101.44362 | 37957 ft | 354 kts | 259° |
| 2026-05-08 00:57 | 32.40025 | -101.50162 | 37957 ft | 354 kts | 259° |
| 2026-05-08 00:58 | 32.39588 | -101.55962 | 37956 ft | 354 kts | 259° |
| 2026-05-08 00:58 | 32.39149 | -101.61763 | 37953 ft | 354 kts | 259° |
| 2026-05-08 00:59 | 32.38707 | -101.67554 | 37953 ft | 354 kts | 259° |
| 2026-05-08 00:59 | 32.38267 | -101.73323 | 37956 ft | 355 kts | 258° |
| 2026-05-08 01:00 | 32.37821 | -101.79134 | 37950 ft | 355 kts | 258° |
| 2026-05-08 01:00 | 32.37372 | -101.84938 | 37953 ft | 354 kts | 258° |
| 2026-05-08 01:01 | 32.36921 | -101.90743 | 37955 ft | 354 kts | 258° |
| 2026-05-08 01:01 | 32.36468 | -101.96513 | 37953 ft | 355 kts | 258° |
| 2026-05-08 01:02 | 32.36012 | -102.02319 | 37954 ft | 355 kts | 258° |
| 2026-05-08 01:02 | 32.35553 | -102.08126 | 37953 ft | 355 kts | 258° |
| 2026-05-08 01:03 | 32.35090 | -102.13941 | 37953 ft | 355 kts | 258° |
| 2026-05-08 01:03 | 32.34628 | -102.19718 | 37955 ft | 355 kts | 258° |
| 2026-05-08 01:04 | 32.34160 | -102.25535 | 37953 ft | 355 kts | 258° |
| 2026-05-08 01:04 | 32.33689 | -102.31347 | 37952 ft | 355 kts | 258° |
| 2026-05-08 01:05 | 32.33213 | -102.37160 | 37955 ft | 355 kts | 258° |
| 2026-05-08 01:05 | 32.32739 | -102.42934 | 37964 ft | 356 kts | 258° |
| 2026-05-08 01:06 | 32.32256 | -102.48771 | 37962 ft | 357 kts | 258° |
| 2026-05-08 01:06 | 32.31773 | -102.54605 | 37961 ft | 357 kts | 258° |
| 2026-05-08 01:07 | 32.31287 | -102.60444 | 37957 ft | 357 kts | 258° |
| 2026-05-08 01:07 | 32.30800 | -102.66283 | 37954 ft | 357 kts | 258° |
| 2026-05-08 01:08 | 32.30313 | -102.72081 | 37956 ft | 357 kts | 258° |
| 2026-05-08 01:08 | 32.29818 | -102.77912 | 37967 ft | 357 kts | 257° |
| 2026-05-08 01:09 | 32.29481 | -102.81834 | 37959 ft | 359 kts | 257° |